Algodones, NM

4:54 AM MST on December 07, 2019 (GMT -0700)
El Rancho Studente | | Change Station

Elev 6404 ft 35.33 °N, 106.39 °W | Updated 5 seconds ago

Clear
Clear
32 °F
Feels Like 32 °F
N
0
Wind Variable Wind from South
Gusts 0.0 mph

Today
High -- | Low -- °F
--% Chance of Precip.
Yesterday
High -- | Low -- °F
Precip. -- in
Pressure 30.26 in
Visibility 10.0 miles
Clouds Clear
Windchill 32 °F
Dew Point 28 °F
Humidity 85%
Rainfall 0.00 in
Snow Depth Not available.
7:01 AM 4:52 PM
Waxing Gibbous, 79% visible
METAR KSAF 071053Z AUTO 35006KT 10SM CLR M02/M03 A3030 RMK AO2 SLP246 T10171033
Pressure 30.26 in
Visibility 10.0 miles
Clouds Clear
Windchill 32 °F
Dew Point 28 °F
Humidity 85%
Rainfall 0.00 in
Snow Depth Not available.
7:01 AM 4:52 PM
Waxing Gibbous, 79% visible
METAR KSAF 071053Z AUTO 35006KT 10SM CLR M02/M03 A3030 RMK AO2 SLP246 T10171033

Get Severe Weather Alerts

Thanks for signing up!

Be on the lookout for a verification email in your inbox.

You'll start receiving the daily forecast at 6 AM.

×

10-Day Weather Forecast

Almanac

Astronomy

Dec. 07, 2019 Rise Set
Actual Time
Civil Twilight
Nautical Twilight
Astronomical Twilight
Moon
Length of Visible Light
Length of Day
Tomorrow will be .
, % of the Moon is Illuminated

Today's Extremes

State Highs State Lows

Community

WunderPhotos

Category 6

Welcome to Category 6. This is the collective home for Weather Underground's featured writeups by Dr. Jeff Masters (right), Bob Henson (left), Chris Burt, and other regular contributors.

Nearby

Air Quality

  Air Quality AQ Index Pollutant
Not available.

Snow Depth

Station Depth Elevation

Earthquake Activity

City Distance Mag. Time & Date
Minimum magnitude displayed is 2.5.

Coastal Water Temperatures

Place Temperature

Stations

Nearby Weather Stations

Station Location Temp. Windchill Dew Point Humidity Wind Precip. Elev Updated Type
                   

Watches & Warnings

There are currently no watches in effect.